DLH410 EDDM-KJFK
Flight info
| Callsign | DLH410 |
|---|---|
| Flight time | N/A |
| Altitude | 38000 |
| Route | GIVMI6Q GIVMI Y101 INBED DCT REKDI DCT LOHRE DCT BUB L608 DENUT L610 KOPUL Q60 OKSAW DCT BIBPE DCT FELCA DCT OFSOX DCT SLANY DCT OLGON DCT NEBIN/M084F390 DCT 5330N02000W 5230N03000W 5130N04000W 5030N05000W DCT BUDAR/N0480F400 DCT ALLEX DCT PLYMM PARCH4 |
| Aircraft | B789/H-SDE1E2E3FGHIJ2J3J4J5M1RWXY/LB1D1 |
Departure
| Time | 2026-04-30 19:58 |
|---|---|
| Airport | Munich Airport (EDDM) |
Arrival
| Time | N/A |
|---|---|
| Airport | John F. Kennedy International Airport (KJFK) |
| Time | Latitude | Longitude | Altitude | Speed | Heading |
|---|---|---|---|---|---|
| 2026-04-30 19:35 | 48.35728 | 11.79939 | 1476 ft | 0 kts | 264° |
| 2026-04-30 19:45 | 48.35728 | 11.79946 | 1476 ft | 2 kts | 263° |
| 2026-04-30 19:45 | 48.35730 | 11.79970 | 1464 ft | 2 kts | 264° |
| 2026-04-30 19:45 | 48.35732 | 11.79995 | 1464 ft | 2 kts | 265° |
| 2026-04-30 19:45 | 48.35733 | 11.80020 | 1465 ft | 2 kts | 266° |
| 2026-04-30 19:46 | 48.35734 | 11.80045 | 1466 ft | 2 kts | 274° |
| 2026-04-30 19:46 | 48.35727 | 11.80066 | 1464 ft | 2 kts | 324° |
| 2026-04-30 19:46 | 48.35712 | 11.80077 | 1464 ft | 2 kts | 344° |
| 2026-04-30 19:46 | 48.35701 | 11.80080 | 1464 ft | 1 kts | 352° |
| 2026-04-30 19:47 | 48.35700 | 11.80080 | 1464 ft | 0 kts | 353° |
| 2026-04-30 19:48 | 48.35708 | 11.80079 | 1464 ft | 2 kts | 355° |
| 2026-04-30 19:48 | 48.35724 | 11.80077 | 1464 ft | 3 kts | 354° |
| 2026-04-30 19:48 | 48.35766 | 11.80068 | 1470 ft | 8 kts | 348° |
| 2026-04-30 19:48 | 48.35811 | 11.80037 | 1466 ft | 7 kts | 320° |
| 2026-04-30 19:49 | 48.35822 | 11.79979 | 1473 ft | 8 kts | 275° |
| 2026-04-30 19:49 | 48.35814 | 11.79798 | 1469 ft | 8 kts | 262° |
| 2026-04-30 19:49 | 48.35808 | 11.79721 | 1474 ft | 8 kts | 263° |
| 2026-04-30 19:50 | 48.35808 | 11.79643 | 1469 ft | 7 kts | 281° |
| 2026-04-30 19:50 | 48.35824 | 11.79560 | 1471 ft | 11 kts | 292° |
| 2026-04-30 19:50 | 48.35855 | 11.79441 | 1468 ft | 12 kts | 292° |
| 2026-04-30 19:50 | 48.35897 | 11.79374 | 1467 ft | 7 kts | 334° |
| 2026-04-30 19:51 | 48.35948 | 11.79350 | 1467 ft | 8 kts | 348° |
| 2026-04-30 19:51 | 48.35991 | 11.79338 | 1465 ft | 0 kts | 352° |
| 2026-04-30 19:51 | 48.35993 | 11.79338 | 1465 ft | 0 kts | 352° |
| 2026-04-30 19:51 | 48.36004 | 11.79336 | 1467 ft | 3 kts | 352° |
| 2026-04-30 19:52 | 48.36056 | 11.79314 | 1468 ft | 13 kts | 329° |
| 2026-04-30 19:52 | 48.36083 | 11.79148 | 1471 ft | 21 kts | 263° |
| 2026-04-30 19:52 | 48.36066 | 11.78935 | 1468 ft | 20 kts | 263° |
| 2026-04-30 19:52 | 48.36050 | 11.78728 | 1467 ft | 20 kts | 263° |
| 2026-04-30 19:53 | 48.36034 | 11.78522 | 1465 ft | 20 kts | 264° |
| 2026-04-30 19:53 | 48.36017 | 11.78295 | 1466 ft | 23 kts | 263° |
| 2026-04-30 19:53 | 48.35997 | 11.78044 | 1470 ft | 25 kts | 263° |
| 2026-04-30 19:53 | 48.35975 | 11.77771 | 1469 ft | 28 kts | 263° |
| 2026-04-30 19:54 | 48.35954 | 11.77485 | 1473 ft | 27 kts | 263° |
| 2026-04-30 19:54 | 48.35934 | 11.77217 | 1467 ft | 26 kts | 263° |
| 2026-04-30 19:54 | 48.35911 | 11.76955 | 1476 ft | 25 kts | 262° |
| 2026-04-30 19:54 | 48.35929 | 11.76714 | 1471 ft | 19 kts | 314° |
| 2026-04-30 19:55 | 48.36001 | 11.76668 | 1471 ft | 11 kts | 348° |
| 2026-04-30 19:55 | 48.36082 | 11.76653 | 1466 ft | 12 kts | 357° |
| 2026-04-30 19:55 | 48.36170 | 11.76694 | 1473 ft | 18 kts | 30° |
| 2026-04-30 19:55 | 48.36269 | 11.76825 | 1470 ft | 18 kts | 62° |
| 2026-04-30 19:56 | 48.36289 | 11.76938 | 1472 ft | 0 kts | 83° |
| 2026-04-30 19:57 | 48.36299 | 11.77062 | 1481 ft | 36 kts | 83° |
| 2026-04-30 19:57 | 48.36351 | 11.77747 | 1466 ft | 95 kts | 83° |
| 2026-04-30 19:57 | 48.36445 | 11.78988 | 1473 ft | 143 kts | 84° |
| 2026-04-30 19:57 | 48.36568 | 11.80622 | 1635 ft | 163 kts | 77° |
| 2026-04-30 19:58 | 48.36731 | 11.82334 | 2072 ft | 166 kts | 82° |
| 2026-04-30 19:58 | 48.36854 | 11.84072 | 2688 ft | 163 kts | 85° |
| 2026-04-30 19:58 | 48.37128 | 11.85701 | 3194 ft | 169 kts | 64° |
| 2026-04-30 19:58 | 48.37969 | 11.86988 | 3727 ft | 176 kts | 38° |
| 2026-04-30 19:59 | 48.39168 | 11.87486 | 4201 ft | 190 kts | 7° |
| 2026-04-30 19:59 | 48.40446 | 11.87120 | 4663 ft | 199 kts | 352° |
| 2026-04-30 19:59 | 48.43049 | 11.84539 | 4846 ft | 262 kts | 312° |
| 2026-04-30 20:00 | 48.44210 | 11.82339 | 5180 ft | 281 kts | 311° |
| 2026-04-30 20:00 | 48.45456 | 11.80097 | 5953 ft | 282 kts | 313° |
| 2026-04-30 20:00 | 48.46764 | 11.77839 | 6835 ft | 291 kts | 313° |
| 2026-04-30 20:00 | 48.48109 | 11.75498 | 6989 ft | 295 kts | 312° |
| 2026-04-30 20:01 | 48.50702 | 11.70908 | 8709 ft | 288 kts | 313° |
| 2026-04-30 20:01 | 48.52009 | 11.68611 | 9684 ft | 292 kts | 313° |
| 2026-04-30 20:01 | 48.53346 | 11.66254 | 10609 ft | 296 kts | 314° |
| 2026-04-30 20:02 | 48.56034 | 11.61503 | 12334 ft | 303 kts | 314° |
| 2026-04-30 20:02 | 48.57401 | 11.59085 | 13184 ft | 309 kts | 315° |
| 2026-04-30 20:03 | 48.60428 | 11.53740 | 13564 ft | 363 kts | 314° |
| 2026-04-30 20:03 | 48.62082 | 11.50784 | 14402 ft | 366 kts | 314° |
| 2026-04-30 20:03 | 48.63750 | 11.47808 | 15164 ft | 370 kts | 314° |
| 2026-04-30 20:03 | 48.65411 | 11.44861 | 15927 ft | 374 kts | 315° |
| 2026-04-30 20:04 | 48.66538 | 11.42860 | 16432 ft | 376 kts | 315° |
| 2026-04-30 20:04 | 48.68680 | 11.39040 | 17386 ft | 381 kts | 315° |
| 2026-04-30 20:04 | 48.69853 | 11.37032 | 17851 ft | 381 kts | 321° |
| 2026-04-30 20:05 | 48.74140 | 11.32377 | 19190 ft | 381 kts | 332° |
| 2026-04-30 20:05 | 48.76303 | 11.30218 | 19812 ft | 384 kts | 332° |
| 2026-04-30 20:05 | 48.80759 | 11.25709 | 21053 ft | 390 kts | 331° |
| 2026-04-30 20:06 | 48.83038 | 11.23386 | 21644 ft | 392 kts | 332° |
| 2026-04-30 20:06 | 48.85410 | 11.21498 | 22183 ft | 388 kts | 344° |
| 2026-04-30 20:06 | 48.87979 | 11.20145 | 22712 ft | 389 kts | 346° |
| 2026-04-30 20:06 | 48.90550 | 11.18849 | 23271 ft | 392 kts | 347° |
| 2026-04-30 20:07 | 48.93162 | 11.17539 | 23821 ft | 395 kts | 346° |
| 2026-04-30 20:07 | 48.95759 | 11.16220 | 24264 ft | 398 kts | 346° |
| 2026-04-30 20:07 | 49.01038 | 11.13526 | 25149 ft | 403 kts | 347° |
| 2026-04-30 20:08 | 49.03721 | 11.12162 | 25568 ft | 405 kts | 347° |
| 2026-04-30 20:08 | 49.06217 | 11.10890 | 25954 ft | 407 kts | 347° |
| 2026-04-30 20:08 | 49.08903 | 11.09517 | 26356 ft | 410 kts | 347° |
| 2026-04-30 20:08 | 49.11638 | 11.08118 | 26765 ft | 412 kts | 347° |
| 2026-04-30 20:09 | 49.14350 | 11.06734 | 27167 ft | 414 kts | 347° |
| 2026-04-30 20:09 | 49.17073 | 11.05347 | 27538 ft | 416 kts | 347° |
| 2026-04-30 20:09 | 49.22605 | 11.02510 | 28282 ft | 421 kts | 347° |
| 2026-04-30 20:10 | 49.28187 | 10.99629 | 29000 ft | 426 kts | 347° |